Foster, West Virginia
Current Conditions -  °F | °C
As of 3:54 PM on Tuesday 25 Nov 2014 (Local Time) from KCRW Reporting Station
Few Clouds Few Clouds  
Wind Chill: 54°   Ceiling: Unl
Heat Index: 54°   Visibility: 10mi
Dew Point: 26°   Wind: 6mph
Humidity: 34%   Direction: 260°W
Pressure: 30.06"   Gusts: NA
Location:  38.1°N, 81.78°W
Report Text: KCRW 252054Z 26005KT 10SM FEW300 12/M03 A3006 RMK AO2 SLP179 T01221033 55005
Loading
Personal Weather Stations






























Interactive Weather Map New forecast layout! Learn more

10-Day Weather Forecast

Advertisements
Track Severe Weather on mobile